Time;durP1;ratioP1;P1;durP2;ratioP2;P2;SDS_P1;SDS_P2;PMS_P1;PMS_P2;Temp;Humidity;BMP_temperature;BMP_pressure;BME280_temperature;BME280_humidity;BME280_pressure;Samples;Min_cycle;Max_cycle;Signal;HPM_P1;HPM_P2
2021/09/15 00:01:09;;;;;;;14.52;7.35;;;17.70;66.20;;;;;;5138103;27;20419;-35
2021/09/15 00:03:37;;;;;;;12.50;6.68;;;17.70;66.00;;;;;;5138694;27;20062;-34
2021/09/15 00:06:04;;;;;;;12.40;6.22;;;17.70;65.60;;;;;;5138293;27;20361;-35
2021/09/15 00:08:31;;;;;;;13.18;5.95;;;17.70;64.80;;;;;;5138358;27;20377;-34
2021/09/15 00:10:56;;;;;;;11.80;5.95;;;17.60;64.30;;;;;;5137894;27;20343;-36
2021/09/15 00:13:22;;;;;;;9.05;5.80;;;17.60;63.90;;;;;;5138790;27;20027;-36
2021/09/15 00:15:48;;;;;;;9.85;5.22;;;17.60;63.70;;;;;;5138040;27;20024;-36
2021/09/15 00:18:13;;;;;;;10.60;4.82;;;17.60;63.40;;;;;;5138525;27;20050;-34
2021/09/15 00:20:39;;;;;;;9.57;5.30;;;17.60;63.20;;;;;;5138194;27;20108;-36
2021/09/15 00:23:05;;;;;;;7.00;4.60;;;17.60;62.80;;;;;;5138426;27;20030;-36
2021/09/15 00:25:31;;;;;;;8.45;4.97;;;17.60;61.90;;;;;;5138102;27;20125;-35
2021/09/15 00:27:56;;;;;;;8.05;4.65;;;17.50;61.10;;;;;;5138491;27;20095;-34
2021/09/15 00:30:22;;;;;;;7.47;4.55;;;17.50;60.90;;;;;;5138080;27;20031;-35
2021/09/15 00:32:48;;;;;;;8.15;4.22;;;17.50;60.10;;;;;;5138006;27;20361;-35
2021/09/15 00:35:13;;;;;;;9.85;4.65;;;17.50;59.40;;;;;;5137834;27;20117;-34
2021/09/15 00:37:39;;;;;;;7.95;4.03;;;17.50;59.10;;;;;;5137872;27;20092;-34
2021/09/15 00:40:07;;;;;;;5.88;4.00;;;17.50;58.90;;;;;;5137735;27;20474;-34
2021/09/15 00:42:32;;;;;;;6.32;3.80;;;17.40;58.20;;;;;;5137083;27;20038;-35
2021/09/15 00:44:58;;;;;;;7.00;4.10;;;17.40;58.30;;;;;;5137545;27;20027;-36
2021/09/15 00:47:24;;;;;;;7.75;4.10;;;17.40;58.40;;;;;;5137821;27;20102;-34
2021/09/15 00:49:49;;;;;;;7.65;4.32;;;17.40;58.60;;;;;;5137773;27;20039;-34
2021/09/15 00:52:15;;;;;;;9.90;4.55;;;17.40;58.70;;;;;;5137532;27;20032;-34
2021/09/15 00:54:41;;;;;;;9.82;4.90;;;17.30;58.80;;;;;;5137223;27;20047;-34
2021/09/15 00:57:07;;;;;;;9.00;4.47;;;17.30;59.10;;;;;;5137343;27;20031;-34
2021/09/15 00:59:32;;;;;;;7.13;4.70;;;17.30;59.50;;;;;;5137037;27;20031;-35
2021/09/15 01:01:58;;;;;;;8.50;5.03;;;17.30;59.90;;;;;;5137420;27;20292;-35
2021/09/15 01:04:24;;;;;;;10.85;5.30;;;17.30;60.30;;;;;;5137254;27;20019;-36
2021/09/15 01:06:50;;;;;;;10.65;5.38;;;17.30;60.30;;;;;;5137136;27;20062;-34
2021/09/15 01:09:16;;;;;;;9.68;4.93;;;17.30;60.70;;;;;;5137414;27;20059;-34
2021/09/15 01:11:42;;;;;;;8.95;5.30;;;17.30;60.90;;;;;;5136941;27;20042;-34
2021/09/15 01:14:10;;;;;;;9.52;5.97;;;17.20;61.10;;;;;;5137448;27;20114;-35
2021/09/15 01:16:52;;;;;;;8.35;5.10;;;17.20;61.20;;;;;;5137004;27;20164;-34
2021/09/15 01:19:18;;;;;;;8.52;5.45;;;17.20;61.40;;;;;;5137029;27;20031;-35
2021/09/15 01:21:46;;;;;;;8.65;4.97;;;17.20;61.70;;;;;;5137120;27;20030;-34
2021/09/15 01:24:12;;;;;;;8.32;5.03;;;17.10;61.80;;;;;;5137374;27;20550;-34
2021/09/15 01:26:38;;;;;;;7.18;4.38;;;17.10;61.30;;;;;;5136784;27;20023;-35
2021/09/15 01:29:04;;;;;;;6.07;4.28;;;17.10;60.50;;;;;;5137016;27;20323;-42
2021/09/15 01:31:30;;;;;;;7.93;4.20;;;17.10;60.10;;;;;;5136633;27;20042;-34
2021/09/15 01:33:55;;;;;;;6.55;3.83;;;17.00;59.40;;;;;;5136855;27;20039;-34
2021/09/15 01:36:21;;;;;;;6.75;3.95;;;17.00;59.00;;;;;;5136722;27;20041;-36
2021/09/15 01:38:47;;;;;;;6.07;3.78;;;17.00;58.80;;;;;;5136893;27;20054;-35
2021/09/15 01:41:12;;;;;;;7.25;3.75;;;17.00;58.60;;;;;;5136498;27;20023;-34
2021/09/15 01:43:38;;;;;;;5.35;3.60;;;17.00;58.00;;;;;;5136590;27;20039;-36
2021/09/15 01:46:04;;;;;;;8.70;3.75;;;16.90;57.90;;;;;;5137036;28;20054;-34
2021/09/15 01:48:29;;;;;;;6.53;3.40;;;16.90;58.00;;;;;;5137278;28;20033;-34
2021/09/15 01:50:55;;;;;;;6.28;3.58;;;16.90;57.80;;;;;;5136220;28;20027;-34
2021/09/15 01:53:21;;;;;;;5.55;3.90;;;16.90;57.40;;;;;;5139469;27;20031;-35
2021/09/15 01:55:46;;;;;;;6.22;3.53;;;16.90;57.20;;;;;;5141047;27;20046;-35
2021/09/15 01:58:12;;;;;;;5.93;3.13;;;16.80;57.20;;;;;;5140810;27;20430;-34
2021/09/15 02:00:38;;;;;;;7.53;3.53;;;16.80;56.40;;;;;;5140963;27;20345;-34
2021/09/15 02:03:03;;;;;;;5.78;3.33;;;16.80;56.50;;;;;;5141216;27;20023;-33
2021/09/15 02:05:30;;;;;;;5.55;3.35;;;16.80;56.40;;;;;;5140697;27;20413;-35
2021/09/15 02:07:56;;;;;;;6.18;3.60;;;16.70;56.40;;;;;;5141116;27;20031;-35
2021/09/15 02:10:21;;;;;;;5.15;3.40;;;16.70;56.50;;;;;;5140806;27;20054;-34
2021/09/15 02:12:47;;;;;;;4.75;3.10;;;16.70;56.50;;;;;;5140946;27;20307;-34
2021/09/15 02:15:13;;;;;;;7.28;3.70;;;16.70;56.30;;;;;;5140695;27;20369;-35
2021/09/15 02:17:40;;;;;;;11.90;3.58;;;16.70;56.00;;;;;;5140593;27;20027;-35
2021/09/15 02:20:07;;;;;;;5.68;2.95;;;16.60;55.60;;;;;;5140414;27;20058;-35
2021/09/15 02:22:33;;;;;;;6.25;2.97;;;16.60;55.40;;;;;;5140570;27;20425;-33
2021/09/15 02:24:59;;;;;;;4.70;2.78;;;16.60;55.30;;;;;;5140436;27;20027;-36
2021/09/15 02:27:25;;;;;;;4.85;3.03;;;16.60;55.30;;;;;;5140448;27;20079;-35
2021/09/15 02:29:50;;;;;;;7.70;3.10;;;16.50;55.30;;;;;;5140171;27;20030;-35
2021/09/15 02:32:16;;;;;;;6.65;3.38;;;16.50;55.60;;;;;;5140014;27;20062;-34
2021/09/15 02:34:42;;;;;;;6.35;3.00;;;16.50;55.70;;;;;;5140122;27;20034;-35
2021/09/15 02:37:07;;;;;;;7.07;3.10;;;16.50;55.70;;;;;;5140330;27;20023;-36
2021/09/15 02:39:33;;;;;;;4.85;2.80;;;16.50;55.70;;;;;;5140021;27;20122;-34
2021/09/15 02:41:59;;;;;;;7.13;3.15;;;16.50;55.90;;;;;;5140366;27;20027;-35
2021/09/15 02:44:24;;;;;;;5.40;2.95;;;16.40;55.80;;;;;;5140343;27;20108;-34
2021/09/15 02:46:50;;;;;;;4.20;2.83;;;16.50;55.90;;;;;;5139960;27;20027;-35
2021/09/15 02:49:15;;;;;;;5.25;2.72;;;16.40;55.80;;;;;;5139976;27;20050;-34
2021/09/15 02:51:41;;;;;;;11.15;3.47;;;16.40;55.70;;;;;;5139736;27;20031;-34
2021/09/15 02:54:07;;;;;;;7.13;3.03;;;16.40;55.90;;;;;;5139714;27;20051;-35
2021/09/15 02:56:32;;;;;;;4.75;3.17;;;16.40;55.90;;;;;;5139751;27;20083;-33
2021/09/15 02:58:58;;;;;;;4.95;2.95;;;16.40;56.10;;;;;;5139676;27;20484;-34
2021/09/15 03:01:24;;;;;;;5.03;3.10;;;16.30;55.90;;;;;;5139522;27;20016;-33
2021/09/15 03:03:49;;;;;;;5.20;3.38;;;16.30;55.70;;;;;;5139075;27;20030;-34
2021/09/15 03:06:15;;;;;;;5.85;3.25;;;16.30;55.50;;;;;;5139203;27;20407;-33
2021/09/15 03:08:40;;;;;;;5.97;3.05;;;16.30;55.30;;;;;;5139517;27;20357;-35
2021/09/15 03:11:06;;;;;;;5.32;3.00;;;16.20;54.80;;;;;;5139766;27;20360;-35
2021/09/15 03:13:32;;;;;;;6.10;3.10;;;16.20;54.90;;;;;;5139268;27;20110;-36
2021/09/15 03:15:58;;;;;;;4.32;2.72;;;16.20;55.00;;;;;;5139161;27;20315;-35
2021/09/15 03:18:23;;;;;;;5.47;3.00;;;16.20;55.00;;;;;;5139915;27;20035;-36
2021/09/15 03:20:49;;;;;;;5.20;2.80;;;16.10;54.90;;;;;;5139187;27;20343;-34
2021/09/15 03:23:14;;;;;;;5.03;2.58;;;16.10;54.50;;;;;;5139639;27;20027;-35
2021/09/15 03:25:40;;;;;;;6.82;2.92;;;16.10;54.30;;;;;;5139005;27;20019;-35
2021/09/15 03:28:06;;;;;;;5.45;2.58;;;16.10;54.50;;;;;;5139634;27;20045;-34
2021/09/15 03:30:32;;;;;;;9.07;3.00;;;16.10;54.60;;;;;;5138714;27;20411;-34
2021/09/15 03:32:57;;;;;;;4.80;2.95;;;16.00;54.40;;;;;;5139563;27;20088;-34
2021/09/15 03:35:23;;;;;;;10.52;3.42;;;16.10;54.40;;;;;;5139301;27;20027;-34
2021/09/15 03:37:49;;;;;;;4.65;2.85;;;16.10;54.40;;;;;;5139025;27;20023;-36
2021/09/15 03:40:15;;;;;;;5.72;3.10;;;16.00;54.40;;;;;;5139203;27;20080;-34
2021/09/15 03:42:40;;;;;;;5.15;2.70;;;16.00;54.40;;;;;;5138832;27;20303;-34
2021/09/15 03:45:07;;;;;;;6.65;2.83;;;16.00;54.70;;;;;;5138593;27;20058;-34
2021/09/15 03:47:33;;;;;;;4.60;3.00;;;15.90;54.80;;;;;;5138707;27;20060;-35
2021/09/15 03:49:58;;;;;;;5.57;2.80;;;16.00;55.00;;;;;;5138747;27;20361;-34
2021/09/15 03:52:24;;;;;;;4.63;2.75;;;16.00;55.30;;;;;;5138792;27;20027;-36
2021/09/15 03:54:50;;;;;;;5.65;3.17;;;16.00;55.40;;;;;;5138648;27;20443;-34
2021/09/15 03:57:16;;;;;;;5.68;2.85;;;16.00;55.20;;;;;;5138629;27;20388;-34
2021/09/15 03:59:41;;;;;;;7.85;3.03;;;16.00;55.30;;;;;;5138270;27;20038;-36
2021/09/15 04:02:07;;;;;;;5.65;3.22;;;15.90;55.40;;;;;;5138864;27;20110;-36
2021/09/15 04:04:33;;;;;;;7.07;3.60;;;15.90;55.50;;;;;;5138607;27;20027;-33
2021/09/15 04:06:58;;;;;;;8.77;4.28;;;15.90;55.60;;;;;;5138434;27;20345;-34
2021/09/15 04:09:24;;;;;;;8.77;2.92;;;15.90;55.50;;;;;;5138250;27;20118;-35
2021/09/15 04:11:49;;;;;;;6.38;3.47;;;15.90;55.40;;;;;;5138100;27;20084;-33
2021/09/15 04:14:15;;;;;;;7.75;3.05;;;15.90;55.50;;;;;;5119869;27;20339;-37
2021/09/15 04:16:41;;;;;;;7.65;2.88;;;15.90;55.50;;;;;;5137968;27;20515;-34
2021/09/15 04:19:07;;;;;;;6.03;2.92;;;15.90;55.70;;;;;;5137954;27;20058;-34
2021/09/15 04:21:32;;;;;;;6.95;3.88;;;15.90;56.00;;;;;;5138059;27;20028;-33
2021/09/15 04:24:28;;;;;;;8.93;3.35;;;16.00;56.00;;;;;;5137837;27;20114;-34
2021/09/15 04:32:21;;;;;;;7.25;3.53;;;16.00;56.50;;;;;;5137671;27;20033;-35
2021/09/15 04:34:46;;;;;;;7.72;3.25;;;16.00;56.40;;;;;;5137646;27;20031;-34
2021/09/15 04:37:12;;;;;;;6.78;3.20;;;16.00;56.80;;;;;;5137476;27;20061;-37
2021/09/15 04:39:38;;;;;;;14.63;3.75;;;16.00;56.70;;;;;;5137534;27;20027;-36
2021/09/15 04:42:03;;;;;;;9.00;2.92;;;16.10;56.70;;;;;;5137627;27;20043;-35
2021/09/15 04:44:29;;;;;;;7.70;2.80;;;16.10;56.60;;;;;;5137272;27;20353;-35
2021/09/15 04:46:55;;;;;;;9.18;3.42;;;16.10;56.60;;;;;;5119097;27;20042;-34
2021/09/15 04:49:20;;;;;;;6.32;3.08;;;16.10;56.60;;;;;;5137337;27;20031;-34
2021/09/15 04:51:46;;;;;;;9.85;3.05;;;16.10;56.70;;;;;;5137078;27;20027;-35
2021/09/15 04:54:11;;;;;;;9.20;3.47;;;16.20;56.50;;;;;;5136938;27;20096;-36
2021/09/15 04:56:37;;;;;;;6.13;3.63;;;16.20;56.60;;;;;;5137251;27;20059;-34
2021/09/15 04:59:03;;;;;;;5.85;3.22;;;16.20;57.40;;;;;;5136911;27;20073;-35
2021/09/15 05:01:28;;;;;;;8.27;3.88;;;16.30;57.30;;;;;;5137023;27;20038;-35
2021/09/15 05:03:54;;;;;;;6.65;3.55;;;16.30;57.40;;;;;;5118538;27;20079;-34
2021/09/15 05:06:19;;;;;;;7.57;3.65;;;16.30;57.50;;;;;;5136847;27;20168;-34
2021/09/15 05:08:45;;;;;;;8.25;4.32;;;16.30;57.50;;;;;;5136741;27;20027;-35
2021/09/15 05:11:11;;;;;;;9.10;3.78;;;16.40;57.50;;;;;;5136259;27;20027;-35
2021/09/15 05:13:36;;;;;;;8.38;3.78;;;16.40;57.40;;;;;;5137063;27;20035;-35
2021/09/15 05:16:02;;;;;;;5.97;3.35;;;16.50;57.70;;;;;;5136722;27;20411;-34
2021/09/15 05:18:28;;;;;;;9.82;3.95;;;16.50;57.30;;;;;;5137176;27;20319;-34
2021/09/15 05:20:53;;;;;;;7.03;3.20;;;16.50;57.50;;;;;;5136492;27;20027;-35
2021/09/15 05:23:19;;;;;;;7.63;3.75;;;16.60;57.50;;;;;;5137281;27;20084;-37
2021/09/15 05:25:45;;;;;;;7.95;3.75;;;16.60;57.40;;;;;;5136609;27;20080;-36
2021/09/15 05:28:10;;;;;;;14.38;5.10;;;16.70;56.90;;;;;;5136642;27;20408;-34
2021/09/15 05:30:36;;;;;;;8.23;3.65;;;16.70;57.20;;;;;;5136080;27;20031;-34
2021/09/15 05:33:02;;;;;;;9.70;3.72;;;16.80;56.90;;;;;;5136857;27;20027;-34
2021/09/15 05:35:27;;;;;;;8.07;3.40;;;16.80;57.30;;;;;;5136599;27;20023;-36
2021/09/15 05:37:53;;;;;;;6.47;3.13;;;16.90;57.00;;;;;;5136404;27;20079;-34
2021/09/15 05:40:19;;;;;;;8.75;3.45;;;16.90;57.60;;;;;;5136705;27;20380;-36
2021/09/15 05:42:44;;;;;;;6.40;3.40;;;17.00;57.00;;;;;;5136422;27;20027;-34
2021/09/15 05:45:10;;;;;;;7.50;2.70;;;17.00;57.00;;;;;;5136021;27;20450;-34
2021/09/15 05:47:36;;;;;;;6.57;2.70;;;17.00;56.70;;;;;;5136325;27;20042;-34
2021/09/15 05:50:02;;;;;;;6.05;3.45;;;17.00;56.40;;;;;;5136248;27;20034;-35
2021/09/15 05:52:28;;;;;;;5.00;2.65;;;17.10;56.30;;;;;;5135745;28;20034;-35
2021/09/15 05:54:54;;;;;;;9.30;4.35;;;17.10;56.10;;;;;;5136038;28;20435;-35
2021/09/15 05:57:19;;;;;;;7.40;3.00;;;17.20;56.10;;;;;;5136510;28;20314;-35
2021/09/15 05:59:45;;;;;;;5.90;2.80;;;17.20;55.90;;;;;;5136042;28;20416;-35
2021/09/15 06:02:11;;;;;;;6.43;2.53;;;17.20;55.50;;;;;;5136176;28;20035;-35
2021/09/15 06:04:37;;;;;;;6.60;2.60;;;17.20;55.40;;;;;;5135968;28;20070;-35
2021/09/15 06:07:02;;;;;;;4.93;2.90;;;17.30;54.90;;;;;;5136087;28;20076;-36
2021/09/15 06:09:28;;;;;;;5.15;2.60;;;17.30;54.90;;;;;;5136142;28;20092;-35
2021/09/15 06:11:54;;;;;;;6.70;2.33;;;17.40;54.50;;;;;;5136040;28;20243;-37
2021/09/15 06:14:19;;;;;;;6.25;2.70;;;17.40;54.20;;;;;;5136184;28;20043;-36
2021/09/15 06:16:45;;;;;;;4.82;2.05;;;17.40;53.70;;;;;;5136323;28;20031;-36
2021/09/15 06:19:11;;;;;;;8.13;2.38;;;17.40;53.00;;;;;;5135946;28;20035;-35
2021/09/15 06:21:37;;;;;;;4.80;2.22;;;17.50;53.00;;;;;;5136421;28;20054;-36
2021/09/15 06:24:03;;;;;;;3.97;2.20;;;17.50;52.70;;;;;;5136225;28;20055;-35
2021/09/15 06:26:29;;;;;;;4.90;2.13;;;17.60;52.50;;;;;;5136026;28;20043;-36
2021/09/15 06:28:55;;;;;;;4.35;2.47;;;17.60;52.80;;;;;;5136000;28;20035;-34
2021/09/15 06:31:22;;;;;;;7.18;2.53;;;17.60;52.10;;;;;;5135748;28;20030;-35
2021/09/15 06:33:48;;;;;;;6.05;2.38;;;17.60;52.00;;;;;;5135820;28;20035;-34
2021/09/15 06:36:15;;;;;;;6.38;2.50;;;17.60;51.80;;;;;;5135931;28;20027;-36
2021/09/15 06:38:45;;;;;;;4.00;2.40;;;17.70;51.90;;;;;;5135892;27;20039;-35
2021/09/15 06:41:10;;;;;;;3.83;2.20;;;17.70;51.80;;;;;;5138909;27;20019;-36
2021/09/15 06:43:39;;;;;;;5.22;2.58;;;17.70;51.60;;;;;;5139691;27;20029;-36
2021/09/15 06:46:05;;;;;;;5.30;2.55;;;17.70;52.00;;;;;;5139678;27;20027;-36
2021/09/15 06:48:31;;;;;;;8.88;4.65;;;17.70;52.00;;;;;;5140177;27;20019;-35
2021/09/15 06:50:56;;;;;;;8.50;2.70;;;17.80;51.60;;;;;;5139375;27;20331;-36
2021/09/15 06:53:22;;;;;;;8.10;2.92;;;17.80;51.00;;;;;;5140203;27;20026;-35
2021/09/15 06:55:48;;;;;;;6.70;2.63;;;17.80;50.90;;;;;;5138930;27;20043;-34
2021/09/15 06:58:13;;;;;;;5.47;1.67;;;17.80;50.40;;;;;;5139973;27;20049;-34
2021/09/15 07:00:39;;;;;;;6.32;2.78;;;17.80;49.60;;;;;;5138986;27;20027;-36
2021/09/15 07:03:05;;;;;;;6.28;2.25;;;17.90;49.40;;;;;;5139531;27;20087;-35
2021/09/15 07:05:31;;;;;;;6.95;2.40;;;17.90;48.80;;;;;;5138952;27;20292;-35
2021/09/15 07:07:57;;;;;;;6.93;3.08;;;17.90;47.60;;;;;;5139603;27;20119;-37
2021/09/15 07:10:22;;;;;;;6.13;2.97;;;17.90;48.20;;;;;;5139019;27;20094;-35
2021/09/15 07:12:48;;;;;;;7.50;3.05;;;18.00;48.80;;;;;;5139322;27;20019;-34
2021/09/15 07:15:15;;;;;;;7.70;2.50;;;18.00;49.40;;;;;;5138911;27;20106;-35
2021/09/15 07:17:42;;;;;;;3.72;2.40;;;18.10;48.10;;;;;;5139079;27;20026;-35
2021/09/15 07:20:09;;;;;;;4.97;2.55;;;18.20;47.00;;;;;;5139330;27;20311;-36
2021/09/15 07:22:34;;;;;;;5.03;3.45;;;18.20;46.60;;;;;;5139044;27;20168;-36
2021/09/15 07:25:00;;;;;;;7.50;3.88;;;18.30;46.70;;;;;;5138867;27;20062;-36
2021/09/15 07:27:26;;;;;;;3.67;2.70;;;18.30;47.50;;;;;;5138979;27;20412;-35
2021/09/15 07:29:51;;;;;;;4.28;2.70;;;18.30;47.30;;;;;;5138828;27;20045;-35
2021/09/15 07:32:17;;;;;;;5.22;2.10;;;18.30;47.30;;;;;;5138721;27;20033;-35
2021/09/15 07:34:45;;;;;;;5.30;2.92;;;18.40;46.30;;;;;;5138519;27;20358;-36
2021/09/15 07:37:12;;;;;;;5.82;2.20;;;18.40;46.30;;;;;;5138714;27;20039;-35
2021/09/15 07:39:38;;;;;;;7.32;3.45;;;18.40;46.20;;;;;;5138536;27;20035;-36
2021/09/15 07:42:04;;;;;;;3.55;2.28;;;18.40;46.00;;;;;;5138665;27;20023;-36
2021/09/15 07:44:30;;;;;;;4.13;2.97;;;18.40;46.00;;;;;;5138308;27;20114;-37
2021/09/15 07:46:56;;;;;;;6.25;2.45;;;18.40;46.40;;;;;;5138433;27;20024;-35
2021/09/15 07:49:21;;;;;;;4.68;2.50;;;18.40;45.90;;;;;;5138227;27;20042;-35
2021/09/15 07:51:47;;;;;;;4.47;2.33;;;18.40;46.20;;;;;;5137682;27;20024;-35
2021/09/15 07:54:12;;;;;;;5.28;2.50;;;18.50;46.70;;;;;;5137909;27;20074;-40
2021/09/15 07:56:38;;;;;;;5.20;2.42;;;18.50;46.60;;;;;;5137701;27;20240;-36
2021/09/15 07:59:04;;;;;;;6.75;2.90;;;18.60;46.00;;;;;;5137389;27;20046;-37
2021/09/15 08:01:30;;;;;;;5.50;2.90;;;18.60;45.40;;;;;;5120033;27;20031;-37
2021/09/15 08:03:55;;;;;;;7.85;3.05;;;18.60;46.00;;;;;;5138351;27;20077;-34
2021/09/15 08:06:22;;;;;;;13.02;7.32;;;18.60;44.90;;;;;;5138252;27;20016;-37
2021/09/15 08:08:48;;;;;;;18.45;9.27;;;18.60;45.40;;;;;;5137877;27;20160;-36
2021/09/15 08:11:14;;;;;;;25.73;12.07;;;18.60;45.40;;;;;;5137580;27;20118;-35
2021/09/15 08:13:39;;;;;;;10.15;5.03;;;18.60;44.50;;;;;;5137911;27;20035;-36
2021/09/15 08:16:06;;;;;;;12.00;4.55;;;18.60;44.80;;;;;;5138046;27;20031;-35
2021/09/15 08:18:32;;;;;;;13.85;5.85;;;18.70;45.00;;;;;;5138165;27;20046;-35
2021/09/15 08:20:58;;;;;;;9.70;4.85;;;18.70;44.70;;;;;;5137902;27;20027;-35
2021/09/15 08:23:24;;;;;;;9.27;4.10;;;18.70;45.00;;;;;;5138568;27;20038;-36
2021/09/15 08:25:49;;;;;;;7.38;3.72;;;18.80;45.40;;;;;;5137733;27;20419;-37
2021/09/15 08:28:15;;;;;;;3.92;2.55;;;18.80;45.00;;;;;;5137808;27;20068;-36
2021/09/15 08:30:41;;;;;;;6.05;3.08;;;18.90;45.00;;;;;;5137592;27;20042;-35
2021/09/15 08:33:06;;;;;;;5.50;2.53;;;18.90;45.30;;;;;;5138222;27;20102;-35
2021/09/15 08:35:32;;;;;;;10.82;3.97;;;18.90;45.50;;;;;;5119185;27;20032;-35
2021/09/15 08:38:00;;;;;;;7.18;3.00;;;19.00;45.00;;;;;;5137871;27;20023;-37
2021/09/15 08:40:25;;;;;;;6.38;2.42;;;19.00;44.90;;;;;;5137347;27;20031;-36
2021/09/15 08:42:51;;;;;;;6.25;3.13;;;19.10;45.10;;;;;;5137518;27;20076;-35
2021/09/15 08:45:19;;;;;;;9.10;4.05;;;19.10;45.00;;;;;;5137973;27;20031;-35
2021/09/15 08:47:47;;;;;;;12.75;4.97;;;19.20;44.50;;;;;;5136990;27;20074;-37
2021/09/15 08:50:14;;;;;;;9.32;2.95;;;19.30;44.60;;;;;;5137507;27;20035;-37
2021/09/15 08:52:40;;;;;;;5.13;2.63;;;19.30;45.00;;;;;;5137430;27;20125;-36
2021/09/15 08:55:08;;;;;;;3.72;2.45;;;19.30;44.40;;;;;;5136898;27;20351;-35
2021/09/15 08:57:34;;;;;;;3.50;2.20;;;19.40;44.70;;;;;;5137254;27;20158;-37
2021/09/15 09:00:00;;;;;;;6.15;2.65;;;19.50;44.80;;;;;;5136870;27;20487;-37
2021/09/15 09:02:34;;;;;;;5.28;2.17;;;19.60;44.70;;;;;;5136275;27;20106;-37
2021/09/15 09:05:01;;;;;;;7.82;2.50;;;19.60;44.40;;;;;;5136742;27;20411;-36
2021/09/15 09:07:28;;;;;;;4.82;2.53;;;19.70;44.50;;;;;;5136792;27;20030;-37
2021/09/15 09:09:56;;;;;;;3.38;2.22;;;19.80;44.00;;;;;;5136663;27;20357;-35
2021/09/15 09:12:24;;;;;;;6.85;2.47;;;19.80;43.90;;;;;;5136965;27;20276;-35
2021/09/15 09:14:51;;;;;;;4.03;2.55;;;19.80;44.40;;;;;;5136845;27;20130;-35
2021/09/15 09:17:32;;;;;;;4.95;2.35;;;19.90;43.60;;;;;;5136715;27;20068;-35
2021/09/15 09:20:32;;;;;;;7.47;2.70;;;20.00;43.80;;;;;;5136651;27;20080;-36
2021/09/15 09:23:02;;;;;;;4.60;2.50;;;20.00;44.00;;;;;;5137167;27;20032;-37
2021/09/15 09:25:33;;;;;;;6.82;2.50;;;20.10;44.70;;;;;;5136631;27;20023;-36
2021/09/15 09:27:59;;;;;;;5.65;2.60;;;20.10;43.00;;;;;;5137160;27;20277;-35
2021/09/15 09:30:30;;;;;;;6.22;3.15;;;20.20;43.20;;;;;;5136558;27;20042;-36
2021/09/15 09:32:57;;;;;;;5.13;2.25;;;20.20;42.40;;;;;;5136733;27;20395;-37
2021/09/15 09:35:22;;;;;;;15.82;4.03;;;20.20;43.20;;;;;;5118318;27;20031;-34
2021/09/15 09:37:48;;;;;;;4.95;2.42;;;20.30;43.00;;;;;;5136527;27;20110;-34
2021/09/15 09:40:19;;;;;;;6.22;2.85;;;20.30;43.20;;;;;;5136687;27;20114;-36
2021/09/15 09:42:45;;;;;;;7.43;2.67;;;20.30;43.10;;;;;;5136752;27;20350;-36
2021/09/15 09:45:14;;;;;;;5.03;2.33;;;20.40;43.80;;;;;;5136425;27;20027;-36
2021/09/15 09:47:40;;;;;;;6.90;2.60;;;20.50;43.40;;;;;;5136805;27;20023;-36
2021/09/15 09:50:19;;;;;;;9.85;2.55;;;20.50;42.80;;;;;;5136599;27;20027;-35
2021/09/15 09:52:52;;;;;;;8.95;2.42;;;20.60;42.70;;;;;;5136259;28;20312;-37
2021/09/15 09:55:19;;;;;;;5.25;2.13;;;20.70;43.00;;;;;;5136092;28;20057;-35
2021/09/15 09:57:48;;;;;;;4.60;1.92;;;20.70;43.00;;;;;;5136654;28;20330;-35
2021/09/15 10:00:15;;;;;;;5.03;1.98;;;20.70;42.80;;;;;;5136251;28;20038;-37
2021/09/15 10:02:40;;;;;;;4.95;2.47;;;20.80;42.90;;;;;;5136138;28;20032;-35
2021/09/15 10:05:06;;;;;;;46.90;4.78;;;20.90;42.20;;;;;;5136502;28;20300;-36
2021/09/15 10:07:32;;;;;;;16.95;2.75;;;20.90;42.50;;;;;;5136655;28;20031;-37
2021/09/15 10:09:58;;;;;;;6.07;2.03;;;20.90;41.80;;;;;;5136198;28;20031;-41
2021/09/15 10:12:24;;;;;;;4.65;2.22;;;21.00;42.40;;;;;;5136091;28;20031;-36
2021/09/15 10:14:50;;;;;;;12.50;2.40;;;21.00;43.00;;;;;;5139286;27;20029;-35
2021/09/15 10:17:26;;;;;;;9.38;2.53;;;21.10;43.20;;;;;;5140448;27;20031;-41
2021/09/15 10:19:54;;;;;;;6.38;2.65;;;21.20;42.30;;;;;;5140309;27;20039;-35
2021/09/15 10:22:37;;;;;;;5.35;2.05;;;21.30;42.00;;;;;;5121706;27;20023;-40
2021/09/15 10:25:07;;;;;;;6.45;1.75;;;21.40;42.60;;;;;;5140177;27;20035;-36
2021/09/15 10:28:08;;;;;;;3.45;1.65;;;21.40;42.30;;;;;;5140024;27;20307;-40
2021/09/15 10:30:51;;;;;;;6.50;3.42;;;21.60;42.50;;;;;;5139841;27;20313;-39
2021/09/15 10:33:35;;;;;;;10.98;3.78;;;21.70;42.70;;;;;;5140370;27;20019;-41
2021/09/15 10:36:13;;;;;;;4.50;2.85;;;21.70;43.00;;;;;;5139453;27;20083;-36
2021/09/15 10:38:51;;;;;;;4.35;2.67;;;21.80;43.10;;;;;;5139713;27;20073;-38
2021/09/15 10:41:35;;;;;;;5.10;2.17;;;21.90;42.60;;;;;;5139803;27;20030;-34
2021/09/15 10:44:14;;;;;;;5.20;3.00;;;22.00;42.60;;;;;;5139817;27;20023;-38
2021/09/15 10:46:42;;;;;;;5.45;2.83;;;22.10;42.50;;;;;;5139525;27;20552;-40
2021/09/15 10:49:24;;;;;;;5.55;2.00;;;22.10;42.80;;;;;;5139671;27;20038;-38
2021/09/15 10:52:10;;;;;;;6.43;3.33;;;22.20;42.20;;;;;;5139601;27;20098;-36
2021/09/15 10:54:47;;;;;;;6.22;3.28;;;22.30;42.20;;;;;;5139381;27;20055;-40
2021/09/15 10:57:26;;;;;;;3.72;2.13;;;22.30;42.30;;;;;;5139302;27;20034;-39
2021/09/15 11:00:23;;;;;;;12.40;3.25;;;22.40;41.50;;;;;;5139102;27;20038;-40
2021/09/15 11:02:49;;;;;;;4.90;2.35;;;22.50;42.10;;;;;;5118387;27;20039;-39
2021/09/15 11:05:27;;;;;;;6.57;2.17;;;22.60;42.10;;;;;;5139045;27;20428;-37
2021/09/15 11:07:54;;;;;;;8.90;3.38;;;22.60;40.20;;;;;;5139521;27;20370;-40
2021/09/15 11:10:32;;;;;;;5.15;3.50;;;22.60;40.90;;;;;;5139526;27;20023;-37
2021/09/15 11:13:27;;;;;;;5.78;2.80;;;22.70;41.00;;;;;;5139388;27;20043;-39
2021/09/15 11:15:54;;;;;;;9.57;2.72;;;22.80;39.50;;;;;;5127914;27;20442;-35
2021/09/15 11:18:28;;;;;;;5.78;2.88;;;22.80;40.00;;;;;;5139128;27;20340;-40
2021/09/15 11:21:04;;;;;;;3.45;2.28;;;22.90;40.40;;;;;;5138631;27;20318;-36
2021/09/15 11:23:30;;;;;;;4.32;2.47;;;22.90;38.50;;;;;;5139747;27;20365;-35
2021/09/15 11:25:57;;;;;;;6.90;2.40;;;23.00;38.60;;;;;;5138262;27;20072;-39
2021/09/15 11:28:24;;;;;;;5.82;2.65;;;23.10;38.70;;;;;;5139367;27;20476;-40
2021/09/15 11:30:52;;;;;;;3.10;2.13;;;23.10;38.10;;;;;;5138784;27;20157;-37
2021/09/15 11:33:31;;;;;;;7.85;2.83;;;23.20;37.70;;;;;;5139272;27;20042;-36
2021/09/15 11:36:00;;;;;;;3.75;2.13;;;23.30;35.80;;;;;;5138720;27;20076;-38
2021/09/15 11:38:31;;;;;;;5.00;2.38;;;23.30;36.10;;;;;;5139089;27;20387;-36
2021/09/15 11:41:07;;;;;;;7.70;2.70;;;23.40;35.30;;;;;;5138055;27;20035;-40
2021/09/15 11:43:33;;;;;;;5.78;2.72;;;23.50;35.90;;;;;;5138747;27;20023;-40
2021/09/15 11:45:59;;;;;;;5.28;3.10;;;23.50;36.10;;;;;;5138505;27;20023;-38
2021/09/15 11:48:32;;;;;;;14.93;8.88;;;23.60;36.30;;;;;;5139282;27;20039;-34
2021/09/15 11:51:12;;;;;;;9.18;4.70;;;23.70;36.40;;;;;;5138277;27;20062;-39
2021/09/15 11:53:38;;;;;;;9.57;4.40;;;23.90;36.20;;;;;;5138294;27;20037;-35
2021/09/15 11:56:04;;;;;;;8.15;2.88;;;24.00;35.90;;;;;;5138289;27;20423;-40
2021/09/15 11:58:30;;;;;;;7.80;3.13;;;24.20;34.80;;;;;;5138751;27;20043;-39
2021/09/15 12:00:56;;;;;;;8.50;4.93;;;24.30;34.50;;;;;;5137940;27;20093;-40
2021/09/15 12:03:31;;;;;;;17.80;6.03;;;24.40;34.60;;;;;;5138993;27;20024;-37
2021/09/15 12:05:59;;;;;;;18.10;5.05;;;24.60;35.00;;;;;;5138284;27;20023;-36
2021/09/15 12:08:26;;;;;;;9.25;4.30;;;24.70;34.10;;;;;;5139008;27;20026;-36
2021/09/15 12:10:58;;;;;;;7.22;3.72;;;24.80;34.80;;;;;;5137874;27;20529;-39
2021/09/15 12:13:34;;;;;;;13.65;5.97;;;25.00;34.50;;;;;;5138044;27;20104;-35
2021/09/15 12:16:00;;;;;;;5.05;2.50;;;25.20;34.50;;;;;;5137701;27;20027;-36
2021/09/15 12:18:38;;;;;;;5.57;2.33;;;25.30;32.30;;;;;;5138243;27;20038;-35
2021/09/15 12:21:07;;;;;;;9.13;3.50;;;25.50;31.10;;;;;;5137615;27;20362;-38
2021/09/15 12:23:34;;;;;;;5.10;2.95;;;25.50;32.20;;;;;;5137838;27;20433;-35
2021/09/15 12:26:01;;;;;;;6.10;2.92;;;25.60;31.20;;;;;;5137859;27;20023;-36
2021/09/15 12:28:32;;;;;;;5.75;2.70;;;25.70;32.40;;;;;;5138083;27;20031;-40
2021/09/15 12:31:00;;;;;;;14.27;2.88;;;25.70;32.20;;;;;;5137339;27;20062;-42
2021/09/15 12:33:36;;;;;;;5.80;2.60;;;25.90;31.70;;;;;;5138340;27;20023;-35
2021/09/15 12:36:16;;;;;;;4.70;3.08;;;26.00;30.50;;;;;;5137922;27;20031;-40
2021/09/15 12:38:59;;;;;;;6.18;2.78;;;26.10;31.10;;;;;;5136789;27;20035;-39
2021/09/15 12:41:30;;;;;;;6.00;3.05;;;26.20;30.00;;;;;;5137546;27;20038;-40
2021/09/15 12:44:03;;;;;;;5.38;2.22;;;26.30;30.90;;;;;;5137260;27;20102;-40
2021/09/15 12:46:31;;;;;;;5.45;2.45;;;26.40;29.80;;;;;;5136298;27;20319;-35
2021/09/15 12:48:58;;;;;;;5.32;2.25;;;26.50;29.20;;;;;;5136742;27;20060;-39
2021/09/15 12:51:26;;;;;;;7.82;2.50;;;26.60;29.70;;;;;;5136783;27;20031;-39
2021/09/15 12:53:55;;;;;;;5.78;2.58;;;26.80;29.60;;;;;;5136677;27;20054;-34